Susan Ann — WCY5700 — position and weather

sailwx.info

Track history (hours):
 
Tides and Currents Weather Stations Pressure Air Temp Water Temp Dewpoint Dewpoint Depression Visibility Wind Speed Wind Dir Waves Ship Positions

Susan Ann

Owner: CROSS SOUND FERRY SERVICES INC, NEW LONDON, CT. More information available from US FCC via Universal Licensing System and Coast Guard Vessel Documentation Center.

Last reported at 2018-Jan-12 14:44 UTC. Time now 2018-Jan-20 21:18 UTC.
Position N 41°15' W 072°07'.
Warning: this ship's position is 8 days out of date.

Length 72 m; draft 4 m.

Type: Passenger vessel. MMSI: 367354350.

Date/timePositionNaut miles runAvg speedWind from/ knotsBaromVisibWave heightAir tempDewpointWater temp
2018-Jan-12 14:44N 41°15' W 072°07'314.3
2018-Jan-12 14:31N 41°13' W 072°10'4 3.4
2018-Jan-12 13:11N 41°09' W 072°13'212.4
2018-Jan-12 13:00N 41°12' W 072°13'6 0.5
2018-Jan-12 00:46N 41°15' W 072°07'413.1
2018-Jan-12 00:26N 41°12' W 072°11'4 3.2
2018-Jan-11 23:16N 41°09' W 072°14'310.9
2018-Jan-11 23:00N 41°12' W 072°13'2 0.4
2018-Jan-11 19:10N 41°11' W 072°13'213.1
2018-Jan-11 19:00N 41°12' W 072°12'4 1.9
2018-Jan-11 16:44N 41°15' W 072°07'414.6
2018-Jan-11 16:25N 41°12' W 072°12'3 2.5
2018-Jan-11 15:16N 41°09' W 072°13'311.2
2018-Jan-11 15:00N 41°12' W 072°12'7 0.5
2018-Jan-11 00:49N 41°17' W 072°06'414.3
2018-Jan-11 00:30N 41°14' W 072°10'6 4.3
2018-Jan-10 23:13N 41°09' W 072°14'210.9
2018-Jan-10 23:00N 41°11' W 072°13'8 3.7
2018-Jan-10 20:58N 41°17' W 072°06'612.4
2018-Jan-10 20:30N 41°12' W 072°11'3 2.3
2018-Jan-10 19:10N 41°10' W 072°13'211.0
2018-Jan-10 19:00N 41°12' W 072°13'6 2.7
2018-Jan-10 16:45N 41°15' W 072°07'414.4
2018-Jan-10 16:29N 41°13' W 072°11'4 3.0
2018-Jan-10 15:14N 41°09' W 072°13'311.2
2018-Jan-10 15:00N 41°12' W 072°13'612.2
2018-Jan-10 14:29N 41°16' W 072°07'  
Track history (hours):
 
Tides and Currents Weather Stations Pressure Air Temp Water Temp Dewpoint Dewpoint Depression Visibility Wind Speed Wind Dir Waves Ship Positions

Susan Ann

Owner: CROSS SOUND FERRY SERVICES INC, NEW LONDON, CT. More information available from US FCC via Universal Licensing System and Coast Guard Vessel Documentation Center.

Last reported at 2018-Jan-12 14:44 UTC. Time now 2018-Jan-20 21:18 UTC.
Position N 41°15' W 072°07'.
Warning: this ship's position is 8 days out of date.

Length 72 m; draft 4 m.

Type: Passenger vessel. MMSI: 367354350.

Date/timePositionNaut miles runAvg speedWind from/ knotsBaromVisibWave heightAir tempDewpointWater temp
2018-Jan-12 14:44N 41°15' W 072°07'314.3
2018-Jan-12 14:31N 41°13' W 072°10'4 3.4
2018-Jan-12 13:11N 41°09' W 072°13'212.4
2018-Jan-12 13:00N 41°12' W 072°13'6 0.5
2018-Jan-12 00:46N 41°15' W 072°07'413.1
2018-Jan-12 00:26N 41°12' W 072°11'4 3.2
2018-Jan-11 23:16N 41°09' W 072°14'310.9
2018-Jan-11 23:00N 41°12' W 072°13'2 0.4
2018-Jan-11 19:10N 41°11' W 072°13'213.1
2018-Jan-11 19:00N 41°12' W 072°12'4 1.9
2018-Jan-11 16:44N 41°15' W 072°07'414.6
2018-Jan-11 16:25N 41°12' W 072°12'3 2.5
2018-Jan-11 15:16N 41°09' W 072°13'311.2
2018-Jan-11 15:00N 41°12' W 072°12'7 0.5
2018-Jan-11 00:49N 41°17' W 072°06'414.3
2018-Jan-11 00:30N 41°14' W 072°10'6 4.3
2018-Jan-10 23:13N 41°09' W 072°14'210.9
2018-Jan-10 23:00N 41°11' W 072°13'8 3.7
2018-Jan-10 20:58N 41°17' W 072°06'612.4
2018-Jan-10 20:30N 41°12' W 072°11'3 2.3
2018-Jan-10 19:10N 41°10' W 072°13'211.0
2018-Jan-10 19:00N 41°12' W 072°13'6 2.7
2018-Jan-10 16:45N 41°15' W 072°07'414.4
2018-Jan-10 16:29N 41°13' W 072°11'4 3.0
2018-Jan-10 15:14N 41°09' W 072°13'311.2
2018-Jan-10 15:00N 41°12' W 072°13'612.2
2018-Jan-10 14:29N 41°16' W 072°07'  

Dump ship's entire track history